createdAt,value
2022-08-08T00:00:53.324Z,98.32
2022-08-08T00:03:01.753Z,99.45
2022-08-08T00:06:03.632Z,100.00
2022-08-08T00:08:37.282Z,100.00
2022-08-08T00:11:18.175Z,100.00
2022-08-08T00:14:17.549Z,100.00
2022-08-08T00:16:56.385Z,100.00
2022-08-08T00:19:31.483Z,100.00
2022-08-08T00:22:10.896Z,100.00
2022-08-08T00:24:45.755Z,100.00
2022-08-08T00:27:19.425Z,100.00
2022-08-08T00:29:56.204Z,100.00
2022-08-08T00:32:35.038Z,100.00
2022-08-08T00:35:29.605Z,100.00
2022-08-08T00:38:32.212Z,100.00
2022-08-08T00:41:54.568Z,100.00
2022-08-08T00:45:27.199Z,100.00
2022-08-08T00:48:30.084Z,100.00
2022-08-08T00:51:51.827Z,100.00
2022-08-08T00:54:49.274Z,100.00
2022-08-08T00:57:59.524Z,100.00
2022-08-08T01:00:37.882Z,100.00
2022-08-08T01:04:04.154Z,100.00
2022-08-08T01:07:23.902Z,100.00
2022-08-08T01:10:36.384Z,100.00
2022-08-08T01:13:44.235Z,100.00
2022-08-08T01:16:45.793Z,100.00
2022-08-08T01:20:04.639Z,100.00
2022-08-08T01:24:02.513Z,100.00
2022-08-08T01:26:59.046Z,100.00
2022-08-08T01:29:59.709Z,100.00
2022-08-08T01:33:27.598Z,100.00
2022-08-08T01:36:34.723Z,100.00
2022-08-08T01:39:23.886Z,100.00
2022-08-08T01:42:08.407Z,100.00
2022-08-08T01:44:59.135Z,100.00
2022-08-08T01:48:16.314Z,100.00
2022-08-08T01:51:02.821Z,100.00
2022-08-08T01:55:16.693Z,100.00
2022-08-08T01:56:47.924Z,100.00
2022-08-08T02:00:02.384Z,100.00
2022-08-08T02:03:07.291Z,100.00
2022-08-08T02:05:56.507Z,100.00
2022-08-08T02:08:47.423Z,100.00
2022-08-08T02:11:52.905Z,100.00
2022-08-08T02:14:55.610Z,100.00
2022-08-08T02:17:42.464Z,100.00
2022-08-08T02:21:01.247Z,100.00
2022-08-08T02:23:35.417Z,100.00
2022-08-08T02:26:12.271Z,100.00
2022-08-08T02:29:01.219Z,100.00
2022-08-08T02:31:59.290Z,100.00
2022-08-08T02:35:07.495Z,100.00
2022-08-08T02:38:02.843Z,100.00
2022-08-08T02:40:45.073Z,100.00
2022-08-08T02:44:37.995Z,100.00
2022-08-08T02:46:59.714Z,100.00
2022-08-08T02:49:51.975Z,100.00
2022-08-08T02:52:43.446Z,100.00
2022-08-08T02:56:03.582Z,100.00
2022-08-08T02:59:37.038Z,100.00
2022-08-08T03:02:30.140Z,100.00
2022-08-08T03:05:32.818Z,100.00
2022-08-08T03:08:37.401Z,100.00
2022-08-08T03:12:02.002Z,100.00
2022-08-08T03:15:57.395Z,100.00
2022-08-08T03:17:59.606Z,100.00
2022-08-08T03:20:51.549Z,100.00
2022-08-08T03:23:56.657Z,100.00
2022-08-08T03:26:30.645Z,100.00
2022-08-08T03:29:18.479Z,100.00
2022-08-08T03:32:16.566Z,100.00
2022-08-08T03:34:49.709Z,100.00
2022-08-08T03:38:54.845Z,100.00
2022-08-08T03:40:30.278Z,100.00
2022-08-08T03:43:16.388Z,100.00
2022-08-08T03:46:04.792Z,100.00
2022-08-08T03:49:31.016Z,100.00
2022-08-08T03:51:40.654Z,100.00
2022-08-08T03:54:40.624Z,100.00
2022-08-08T03:58:31.040Z,100.00
2022-08-08T04:00:18.256Z,100.00
2022-08-08T04:03:01.170Z,100.00
2022-08-08T04:05:33.285Z,100.00
2022-08-08T04:08:17.247Z,100.00
2022-08-08T04:11:10.895Z,100.00
2022-08-08T04:14:04.417Z,100.00
2022-08-08T04:16:40.338Z,100.00
2022-08-08T04:19:20.811Z,100.00
2022-08-08T04:21:56.622Z,100.00
2022-08-08T04:24:30.931Z,100.00
2022-08-08T04:27:07.611Z,100.00
2022-08-08T04:29:55.468Z,100.00
2022-08-08T04:32:33.939Z,100.00
2022-08-08T04:35:05.214Z,100.00
2022-08-08T04:37:38.502Z,100.00
2022-08-08T04:40:15.220Z,100.00
2022-08-08T04:42:56.147Z,100.00
2022-08-08T04:45:30.063Z,100.00
2022-08-08T04:48:02.285Z,100.00
2022-08-08T04:50:37.702Z,100.00
2022-08-08T04:53:14.018Z,100.00
2022-08-08T04:56:02.654Z,100.00
2022-08-08T04:58:35.615Z,100.00
2022-08-08T05:01:10.889Z,100.00
2022-08-08T05:04:10.002Z,100.00
2022-08-08T05:06:39.209Z,100.00
2022-08-08T05:09:10.528Z,100.00
2022-08-08T05:11:47.682Z,100.00
2022-08-08T05:14:29.115Z,100.00
2022-08-08T05:17:02.034Z,100.00
2022-08-08T05:20:09.196Z,100.00
2022-08-08T05:22:41.310Z,100.00
2022-08-08T05:25:11.511Z,100.00
2022-08-08T05:27:44.373Z,100.00
2022-08-08T05:30:16.115Z,99.92
2022-08-08T05:32:48.806Z,97.30
2022-08-08T05:35:23.706Z,97.55
2022-08-08T05:38:03.632Z,96.63
2022-08-08T05:40:47.188Z,95.98
2022-08-08T05:43:39.978Z,95.13
2022-08-08T05:46:17.007Z,93.81
2022-08-08T05:48:52.200Z,94.55
2022-08-08T05:51:27.153Z,94.64
2022-08-08T05:54:27.772Z,93.16
2022-08-08T05:57:12.386Z,91.38
2022-08-08T05:59:59.590Z,91.04
2022-08-08T06:03:17.390Z,91.92
2022-08-08T06:06:01.414Z,91.04
2022-08-08T06:08:38.055Z,91.45
2022-08-08T06:11:13.394Z,91.46
2022-08-08T06:13:49.466Z,91.46
2022-08-08T06:16:27.421Z,88.93
2022-08-08T06:19:04.224Z,87.77
2022-08-08T06:21:51.703Z,87.13
2022-08-08T06:24:31.063Z,87.91
2022-08-08T06:27:15.013Z,87.07
2022-08-08T06:30:02.187Z,85.99
2022-08-08T06:32:50.204Z,83.28
2022-08-08T06:36:06.670Z,83.61
2022-08-08T06:38:20.042Z,84.68
2022-08-08T06:40:59.096Z,84.49
2022-08-08T06:43:34.760Z,86.21
2022-08-08T06:46:08.692Z,86.26
2022-08-08T06:48:39.447Z,87.10
2022-08-08T06:51:15.846Z,86.82
2022-08-08T06:53:50.503Z,87.38
2022-08-08T06:56:28.757Z,88.84
2022-08-08T06:59:01.303Z,83.34
2022-08-08T07:02:26.611Z,81.92
2022-08-08T07:04:48.077Z,79.92
2022-08-08T07:07:31.830Z,79.62
2022-08-08T07:10:08.280Z,77.13
2022-08-08T07:12:47.975Z,74.58
2022-08-08T07:16:04.678Z,74.24
2022-08-08T07:18:46.537Z,73.69
2022-08-08T07:21:23.127Z,73.56
2022-08-08T07:24:06.986Z,74.02
2022-08-08T07:27:06.025Z,71.08
2022-08-08T07:29:59.809Z,71.16
2022-08-08T07:32:34.696Z,71.50
2022-08-08T07:35:08.556Z,70.72
2022-08-08T07:37:56.298Z,68.62
2022-08-08T07:40:58.938Z,66.48
2022-08-08T07:43:37.583Z,67.75
2022-08-08T07:46:18.419Z,66.08
2022-08-08T07:48:55.064Z,63.90
2022-08-08T07:51:44.956Z,64.75
2022-08-08T07:54:27.545Z,62.95
2022-08-08T07:57:11.003Z,59.48
2022-08-08T07:59:54.085Z,61.07
2022-08-08T08:02:38.628Z,59.15
2022-08-08T08:05:22.514Z,56.91
2022-08-08T08:08:01.226Z,57.96
2022-08-08T08:10:35.559Z,56.17
2022-08-08T08:13:25.181Z,55.50
2022-08-08T08:16:02.821Z,54.09
2022-08-08T08:18:52.241Z,54.17
2022-08-08T08:21:44.011Z,56.17
2022-08-08T08:24:32.261Z,55.55
2022-08-08T08:27:03.917Z,55.68
2022-08-08T08:29:35.866Z,54.93
2022-08-08T08:32:08.970Z,54.03
2022-08-08T08:34:43.076Z,53.71
2022-08-08T08:37:24.045Z,53.71
2022-08-08T08:40:02.931Z,52.26
2022-08-08T08:42:38.678Z,53.52
2022-08-08T08:45:22.884Z,54.47
2022-08-08T08:48:06.175Z,54.05
2022-08-08T08:50:41.010Z,52.37
2022-08-08T08:53:27.170Z,52.33
2022-08-08T08:56:13.872Z,51.03
2022-08-08T08:58:50.510Z,51.19
2022-08-08T09:01:27.449Z,49.95
2022-08-08T09:04:01.658Z,48.74
2022-08-08T09:06:40.531Z,50.13
2022-08-08T09:10:01.174Z,49.71
2022-08-08T09:13:06.555Z,50.61
2022-08-08T09:15:41.556Z,50.21
2022-08-08T09:18:17.065Z,50.53
2022-08-08T09:22:02.129Z,51.41
2022-08-08T09:23:40.874Z,49.52
2022-08-08T09:26:21.423Z,48.68
2022-08-08T09:28:52.644Z,47.19
2022-08-08T09:31:42.628Z,46.64
2022-08-08T09:34:39.878Z,48.05
2022-08-08T09:37:58.422Z,47.38
2022-08-08T09:40:13.663Z,46.08
2022-08-08T09:42:51.407Z,47.46
2022-08-08T09:46:00.984Z,46.09
2022-08-08T09:48:26.126Z,46.50
2022-08-08T09:51:06.052Z,46.66
2022-08-08T09:54:00.052Z,46.53
2022-08-08T09:56:41.323Z,45.84
2022-08-08T09:59:50.242Z,46.47
2022-08-08T10:02:20.037Z,46.84
2022-08-08T10:04:54.258Z,46.04
2022-08-08T10:07:26.941Z,44.80
2022-08-08T10:10:13.026Z,46.12
2022-08-08T10:12:52.911Z,45.42
2022-08-08T10:15:25.426Z,43.84
2022-08-08T10:18:10.304Z,44.95
2022-08-08T10:20:57.327Z,44.56
2022-08-08T10:23:45.073Z,44.25
2022-08-08T10:26:30.291Z,45.75
2022-08-08T10:29:06.117Z,45.72
2022-08-08T10:31:55.852Z,46.09
2022-08-08T10:34:27.440Z,44.38
2022-08-08T10:36:59.840Z,44.86
2022-08-08T10:39:43.713Z,46.00
2022-08-08T10:42:27.715Z,45.10
2022-08-08T10:45:08.817Z,45.94
2022-08-08T10:47:44.083Z,45.02
2022-08-08T10:50:18.643Z,44.56
2022-08-08T10:52:48.694Z,45.66
2022-08-08T10:55:41.585Z,47.36
2022-08-08T10:58:11.716Z,45.62
2022-08-08T11:00:53.351Z,47.21
2022-08-08T11:04:01.569Z,46.13
2022-08-08T11:06:35.577Z,45.49
2022-08-08T11:09:09.810Z,45.66
2022-08-08T11:12:05.658Z,46.53
2022-08-08T11:14:47.771Z,46.36
2022-08-08T11:18:00.636Z,47.65
2022-08-08T11:20:18.086Z,47.13
2022-08-08T11:22:52.145Z,46.66
2022-08-08T11:25:52.663Z,45.30
2022-08-08T11:28:23.308Z,46.27
2022-08-08T11:31:00.260Z,46.82
2022-08-08T11:33:51.331Z,47.16
2022-08-08T11:36:22.405Z,46.50
2022-08-08T11:38:55.621Z,46.69
2022-08-08T11:41:32.344Z,47.55
2022-08-08T11:44:04.853Z,48.11
2022-08-08T11:46:34.984Z,46.34
2022-08-08T11:49:09.267Z,46.71
2022-08-08T11:51:49.806Z,46.66
2022-08-08T11:54:33.371Z,46.10
2022-08-08T11:57:27.244Z,47.18
2022-08-08T12:00:01.793Z,46.74
2022-08-08T12:02:51.067Z,45.14
2022-08-08T12:05:33.670Z,45.68
2022-08-08T12:08:04.732Z,46.84
2022-08-08T12:10:47.735Z,45.41
2022-08-08T12:13:21.671Z,44.59
2022-08-08T12:16:12.311Z,44.83
2022-08-08T12:18:50.800Z,46.30
2022-08-08T12:21:59.780Z,44.89
2022-08-08T12:24:19.259Z,45.53
2022-08-08T12:26:51.013Z,45.53
2022-08-08T12:29:40.209Z,44.07
2022-08-08T12:32:19.687Z,44.77
2022-08-08T12:35:17.539Z,43.68
2022-08-08T12:38:02.465Z,42.77
2022-08-08T12:40:44.465Z,43.76
2022-08-08T12:43:32.859Z,43.17
2022-08-08T12:46:19.292Z,42.91
2022-08-08T12:49:21.948Z,42.77
2022-08-08T12:51:58.556Z,44.01
2022-08-08T12:54:33.071Z,42.48
2022-08-08T12:57:16.903Z,42.26
2022-08-08T13:00:05.852Z,41.29
2022-08-08T13:02:51.169Z,40.94
2022-08-08T13:05:26.868Z,40.36
2022-08-08T13:08:17.786Z,40.64
2022-08-08T13:10:56.275Z,39.97
2022-08-08T13:13:35.064Z,40.46
2022-08-08T13:16:19.832Z,40.55
2022-08-08T13:18:58.313Z,40.96
2022-08-08T13:21:53.752Z,42.14
2022-08-08T13:24:40.976Z,42.74
2022-08-08T13:27:16.273Z,41.58
2022-08-08T13:29:56.903Z,41.00
2022-08-08T13:32:29.810Z,41.43
2022-08-08T13:35:03.661Z,42.04
2022-08-08T13:38:03.179Z,42.92
2022-08-08T13:40:27.263Z,43.81
2022-08-08T13:42:58.520Z,44.28
2022-08-08T13:45:28.672Z,44.52
2022-08-08T13:48:02.804Z,46.45
2022-08-08T13:50:49.037Z,45.61
2022-08-08T13:53:34.195Z,45.97
2022-08-08T13:56:11.232Z,46.37
2022-08-08T13:58:57.481Z,46.56
2022-08-08T14:01:32.846Z,44.84
2022-08-08T14:04:24.512Z,44.99
2022-08-08T14:07:00.573Z,46.05
2022-08-08T14:10:02.520Z,45.25
2022-08-08T14:12:28.619Z,43.15
2022-08-08T14:14:57.676Z,45.55
2022-08-08T14:17:58.088Z,46.93
2022-08-08T14:20:56.299Z,45.86
2022-08-08T14:23:21.165Z,46.22
2022-08-08T14:26:10.403Z,44.16
2022-08-08T14:28:51.914Z,43.76
2022-08-08T14:31:36.530Z,41.74
2022-08-08T14:44:10.451Z,42.91
2022-08-08T14:51:19.442Z,40.96
2022-08-08T15:01:51.491Z,41.47
2022-08-08T15:04:23.077Z,40.95
2022-08-08T15:06:56.730Z,40.26
2022-08-08T15:09:29.709Z,41.28
2022-08-08T15:12:01.391Z,41.92
2022-08-08T15:14:32.538Z,42.54
2022-08-08T15:17:04.009Z,43.87
2022-08-08T15:19:34.592Z,44.47
2022-08-08T15:22:07.550Z,44.24
2022-08-08T15:24:37.159Z,46.68
2022-08-08T15:27:11.915Z,46.26
2022-08-08T15:29:57.846Z,45.89
2022-08-08T15:32:31.429Z,46.56
2022-08-08T15:35:04.389Z,46.75
2022-08-08T15:37:38.100Z,47.57
2022-08-08T15:40:11.330Z,48.03
2022-08-08T15:42:47.688Z,46.51
2022-08-08T15:45:48.956Z,46.88
2022-08-08T15:48:20.933Z,46.00
2022-08-08T15:51:03.087Z,47.04
2022-08-08T15:53:49.555Z,46.66
2022-08-08T15:56:20.729Z,46.67
2022-08-08T15:58:52.499Z,48.43
2022-08-08T16:01:23.264Z,47.97
2022-08-08T16:04:13.775Z,46.62
2022-08-08T16:06:49.929Z,46.30
2022-08-08T16:13:10.006Z,48.00
2022-08-08T16:13:14.782Z,46.97
2022-08-08T16:15:02.299Z,47.81
2022-08-08T16:17:57.638Z,48.29
2022-08-08T16:20:22.898Z,48.15
2022-08-08T16:22:54.711Z,48.04
2022-08-08T16:25:30.017Z,48.57
2022-08-08T16:28:34.889Z,49.63
2022-08-08T16:31:08.222Z,48.19
2022-08-08T16:33:40.092Z,48.18
2022-08-08T16:36:12.967Z,48.46
2022-08-08T16:38:53.939Z,49.92
2022-08-08T16:41:26.999Z,49.02
2022-08-08T16:43:59.838Z,50.62
2022-08-08T16:46:37.223Z,50.40
2022-08-08T16:49:14.467Z,51.34
2022-08-08T16:55:01.329Z,52.73
2022-08-08T16:55:07.211Z,51.26
2022-08-08T16:58:15.872Z,53.90
2022-08-08T17:00:26.992Z,53.22
2022-08-08T17:02:57.667Z,54.00
2022-08-08T17:05:45.082Z,54.41
2022-08-08T17:08:15.617Z,55.27
2022-08-08T17:10:53.498Z,56.30
2022-08-08T17:13:41.294Z,56.52
2022-08-08T17:16:22.274Z,57.53
2022-08-08T17:18:54.947Z,58.82
2022-08-08T17:21:27.816Z,59.34
2022-08-08T17:24:06.080Z,60.23
2022-08-08T17:26:53.590Z,61.61
2022-08-08T17:29:25.031Z,63.10
2022-08-08T17:31:57.497Z,63.32
2022-08-08T17:34:37.785Z,64.24
2022-08-08T17:37:21.178Z,65.19
2022-08-08T17:40:12.447Z,65.63
2022-08-08T17:42:47.101Z,66.53
2022-08-08T17:45:23.687Z,67.25
2022-08-08T17:47:55.320Z,67.40
2022-08-08T17:50:26.187Z,67.68
2022-08-08T17:52:57.721Z,68.79
2022-08-08T17:56:05.410Z,69.16
2022-08-08T17:58:22.748Z,70.30
2022-08-08T18:00:59.108Z,70.40
2022-08-08T18:03:31.315Z,70.69
2022-08-08T18:06:19.903Z,70.88
2022-08-08T18:08:56.708Z,72.10
2022-08-08T18:11:29.574Z,72.44
2022-08-08T18:14:00.279Z,73.32
2022-08-08T18:16:37.508Z,74.11
2022-08-08T18:19:11.125Z,74.05
2022-08-08T18:21:59.867Z,74.42
2022-08-08T18:24:32.586Z,74.60
2022-08-08T18:27:06.139Z,75.31
2022-08-08T18:29:51.367Z,76.08
2022-08-08T18:32:22.839Z,77.45
2022-08-08T18:34:57.859Z,78.47
2022-08-08T18:37:34.720Z,81.28
2022-08-08T18:40:07.475Z,79.90
2022-08-08T18:42:50.280Z,82.03
2022-08-08T18:45:44.890Z,83.20
2022-08-08T18:48:18.233Z,83.76
2022-08-08T18:50:58.123Z,83.25
2022-08-08T18:54:00.206Z,84.08
2022-08-08T18:56:30.846Z,85.13
2022-08-08T18:59:02.769Z,86.56
2022-08-08T19:02:26.735Z,87.62
2022-08-08T19:04:27.815Z,88.97
2022-08-08T19:07:03.581Z,88.46
2022-08-08T19:09:48.883Z,88.27
2022-08-08T19:12:49.853Z,88.03
2022-08-08T19:15:34.064Z,87.89
2022-08-08T19:18:31.029Z,88.86
2022-08-08T19:21:29.466Z,89.31
2022-08-08T19:24:10.362Z,89.11
2022-08-08T19:26:59.059Z,89.78
2022-08-08T19:29:29.271Z,89.44
2022-08-08T19:32:00.249Z,88.84
2022-08-08T19:34:38.804Z,88.57
2022-08-08T19:37:16.033Z,88.89
2022-08-08T19:39:50.797Z,89.39
2022-08-08T19:42:21.678Z,89.95
2022-08-08T19:44:52.289Z,89.62
2022-08-08T19:47:25.491Z,89.86
2022-08-08T19:50:05.098Z,90.45
2022-08-08T19:52:37.242Z,91.22
2022-08-08T19:55:09.661Z,91.61
2022-08-08T19:57:43.179Z,91.72
2022-08-08T20:00:29.180Z,91.65
2022-08-08T20:03:15.193Z,92.13
2022-08-08T20:06:14.362Z,92.10
2022-08-08T20:14:32.177Z,93.67
2022-08-08T20:16:29.477Z,94.32
2022-08-08T20:19:00.131Z,94.58
2022-08-08T20:21:37.878Z,94.09
2022-08-08T20:24:10.713Z,93.92
2022-08-08T20:26:41.545Z,96.35
2022-08-08T20:29:12.352Z,98.51
2022-08-08T20:32:06.856Z,99.17
2022-08-08T20:34:36.106Z,99.53
2022-08-08T20:37:09.213Z,99.45
2022-08-08T20:39:50.991Z,98.99
2022-08-08T20:42:29.007Z,99.46
2022-08-08T20:45:00.398Z,99.85
2022-08-08T20:47:36.588Z,99.26
2022-08-08T20:50:10.689Z,99.68
2022-08-08T20:52:44.857Z,99.60
2022-08-08T20:55:25.542Z,99.64
2022-08-08T20:57:57.836Z,99.77
2022-08-08T21:00:28.453Z,99.77
2022-08-08T21:03:00.615Z,99.99
2022-08-08T21:05:32.512Z,100.00
2022-08-08T21:08:37.167Z,100.00
2022-08-08T21:11:10.267Z,100.00
2022-08-08T21:13:42.422Z,100.00
2022-08-08T21:16:18.115Z,100.00
2022-08-08T21:18:51.143Z,100.00
2022-08-08T21:21:39.872Z,100.00
2022-08-08T21:24:25.549Z,100.00
2022-08-08T21:27:00.357Z,100.00
2022-08-08T21:30:03.729Z,100.00
2022-08-08T21:32:25.817Z,100.00
2022-08-08T21:34:56.617Z,100.00
2022-08-08T21:37:53.178Z,100.00
2022-08-08T21:40:21.013Z,100.00
2022-08-08T21:43:01.442Z,100.00
2022-08-08T21:47:59.135Z,100.00
2022-08-08T21:48:35.279Z,100.00
2022-08-08T21:51:13.288Z,100.00
2022-08-08T21:54:23.062Z,100.00
2022-08-08T21:56:42.167Z,100.00
2022-08-08T21:59:15.200Z,100.00
2022-08-08T22:01:47.383Z,100.00
2022-08-08T22:04:24.772Z,100.00
2022-08-08T22:06:56.512Z,100.00
2022-08-08T22:09:37.438Z,100.00
2022-08-08T22:12:17.085Z,100.00
2022-08-08T22:14:49.982Z,100.00
2022-08-08T22:17:22.733Z,100.00
2022-08-08T22:20:13.045Z,100.00
2022-08-08T22:22:45.543Z,100.00
2022-08-08T22:25:25.752Z,100.00
2022-08-08T22:28:04.231Z,100.00
2022-08-08T22:30:52.920Z,100.00
2022-08-08T22:34:13.881Z,100.00
2022-08-08T22:36:14.074Z,100.00
2022-08-08T22:38:48.659Z,100.00
2022-08-08T22:41:21.792Z,100.00
2022-08-08T22:44:02.691Z,100.00
2022-08-08T22:46:39.558Z,100.00
2022-08-08T22:49:10.061Z,100.00
2022-08-08T22:51:42.778Z,100.00
2022-08-08T22:54:17.168Z,100.00
2022-08-08T22:57:11.494Z,100.00
2022-08-08T22:59:58.608Z,100.00
2022-08-08T23:02:30.291Z,100.00
2022-08-08T23:05:04.700Z,100.00
2022-08-08T23:07:57.028Z,100.00
2022-08-08T23:10:27.216Z,100.00
2022-08-08T23:12:58.272Z,100.00
2022-08-08T23:16:41.174Z,100.00
2022-08-08T23:18:19.143Z,100.00
2022-08-08T23:20:54.844Z,100.00
2022-08-08T23:23:27.743Z,100.00
2022-08-08T23:26:01.722Z,100.00
2022-08-08T23:28:33.462Z,100.00
2022-08-08T23:31:04.260Z,100.00
2022-08-08T23:34:15.268Z,100.00
2022-08-08T23:36:26.338Z,100.00
2022-08-08T23:38:57.777Z,100.00
2022-08-08T23:41:28.945Z,100.00
2022-08-08T23:43:59.443Z,100.00
2022-08-08T23:49:06.771Z,100.00
2022-08-08T23:49:25.133Z,100.00
2022-08-08T23:52:05.840Z,100.00
2022-08-08T23:54:41.252Z,100.00
2022-08-08T23:57:27.036Z,100.00
